• Join FlightAware (Why Join?)
  • Login
  • US Flag 
11:19AM EDT


 

Airport Tracker/Info


-or-


 

Live Flight TrackerFlight Track Log ✈ UAL44 ✈ 07-Apr-2013 ✈ KEWR - LIMC / MXP

Flight Track Log - Related Links

Times and Time Zones

All times are in EDT time to prevent confusion due to time zone crossing. See the UAL44 flight status page for this flight to view local times or setup timezone preferences in your user account.

Time Position Orientation Groundspeed Altitude Reporting Facility
EDT Latitude Longitude Course Direction KTS MPH feet Rate Location/Type
06:55PM 40.6769 -74.1777 205° Southwest 130 150 300  Level FlightAware ADS-B
06:55PM 40.6709 -74.1806 200° South 170 196 700 3,480 Climbing FlightAware ADS-B
06:55PM 40.6677 -74.1809 184° South 170 196 1,000 3,300 Climbing FlightAware ADS-B
06:55PM 40.6640 -74.1807 178° South 170 196 1,200 2,460 Climbing FlightAware ADS-B
06:55PM 40.6586 -74.1802 176° South 173 199 1,500 1,860 Climbing FlightAware ADS-B
06:55PM 40.6513 -74.1813 187° South 181 208 1,700 1,380 Climbing FlightAware ADS-B
06:56PM 40.6448 -74.1844 200° South 188 216 1,900 1,500 Climbing FlightAware ADS-B
06:56PM 40.6415 -74.1865 206° Southwest 189 217 2,000 2,640 Climbing FlightAware ADS-B
06:56PM 40.6371 -74.1895 207° Southwest 190 219 2,300 2,460 Climbing FlightAware ADS-B
06:56PM 40.6325 -74.1941 217° Southwest 193 222 2,500 1,020 Climbing FlightAware ADS-B
06:56PM 40.6271 -74.2043 235° Southwest 203 234 2,600 780 Climbing FlightAware ADS-B
06:56PM 40.6257 -74.2108 254° West 224 258 2,700 660 Climbing FlightAware ADS-B
06:56PM 40.6254 -74.2166 266° West 231 266 2,700 1,080 Level FlightAware ADS-B
06:56PM 40.6291 -74.2330 287° West 250 288 3,000 1,980 Climbing FlightAware ADS-B
06:56PM 40.6312 -74.2367 307° West 256 295 3,200 3,240 Climbing FlightAware ADS-B
06:57PM 40.6384 -74.2449 319° Northwest 266 306 3,600 3,240 Climbing FlightAware ADS-B
06:57PM 40.6425 -74.2474 335° Northwest 268 308 3,800 3,300 Climbing FlightAware ADS-B
06:57PM 40.6628 -74.2489 357° North 276 318 4,700 3,420 Climbing FlightAware ADS-B
06:57PM 40.6691 -74.2462 18° North 289 333 5,000 3,480 Climbing FlightAware ADS-B
06:57PM 40.6782 -74.2403 26° Northeast 295 339 5,400 3,000 Climbing FlightAware ADS-B
06:57PM 40.6926 -74.2284 32° Northeast 298 343 6,000 2,100 Climbing FlightAware ADS-B
06:58PM 40.7113 -74.2125 33° Northeast 300 345 6,400 2,040 Climbing FlightAware ADS-B
06:58PM 40.7291 -74.1967 34° Northeast 300 345 7,100 2,400 Climbing FlightAware ADS-B
06:58PM 40.7456 -74.1824 33° Northeast 304 350 7,600 1,860 Climbing FlightAware ADS-B
06:58PM 40.7475 -74.1809 31° Northeast 305 351 7,600 1,200 Level FlightAware ADS-B
06:58PM 40.7511 -74.1777 34° Northeast 305 351 7,700 1,500 Climbing FlightAware ADS-B
06:58PM 40.7571 -74.1717 37° Northeast 307 353 7,800 720 Climbing FlightAware ADS-B
06:58PM 40.7604 -74.1675 44° Northeast 308 354 7,800 960 Level FlightAware ADS-B
06:58PM 40.7628 -74.1639 49° Northeast 310 357 7,900 960 Climbing FlightAware ADS-B
06:58PM 40.7661 -74.1584 52° Northeast 311 358 7,900  Level FlightAware ADS-B
06:59PM 40.7706 -74.1486 59° Northeast 312 359 7,900  Level FlightAware ADS-B
06:59PM 40.7729 -74.1412 68° East 313 360 7,900  Level FlightAware ADS-B
06:59PM 40.7746 -74.1335 74° East 315 362 7,900 600 Level FlightAware ADS-B
06:59PM 40.7789 -74.1053 79° East 313 360 8,100 1,380 Climbing FlightAware ADS-B
06:59PM 40.7832 -74.0770 79° East 321 369 8,600 2,220 Climbing FlightAware ADS-B
06:59PM 40.7885 -74.0430 78° East 328 377 9,300 2,280 Climbing FlightAware ADS-B
06:59PM 40.7887 -74.0420 75° East 330 380 9,300 1,860 Level FlightAware ADS-B
07:00PM 40.7937 -74.0116 78° East 336 387 9,800 1,860 Climbing FlightAware ADS-B
07:00PM 40.7938 -74.0104 84° East 336 387 9,800  Level FlightAware ADS-B
07:00PM 40.7988 -73.9807 77° East 338 389 9,800  Level FlightAware ADS-B
07:00PM 40.8020 -73.9701 68° East 338 389 9,800  Level FlightAware ADS-B
07:00PM 40.8063 -73.9608 59° Northeast 328 377 9,800  Level FlightAware ADS-B
07:00PM 40.8098 -73.9547 53° Northeast 325 374 9,800 240 Level FlightAware ADS-B
07:00PM 40.8254 -73.9275 53° Northeast 345 397 9,900 240 Climbing FlightAware ADS-B
07:01PM 40.8306 -73.9188 52° Northeast 342 394 9,900 1,620 Level FlightAware ADS-B
07:01PM 40.8674 -73.8647 48° Northeast 377 434 10,900 1,680 Climbing FlightAware ADS-B
07:02PM 40.9139 -73.8001 46° Northeast 397 457 11,900 600 Climbing FlightAware ADS-B
07:03PM 40.9840 -73.7020 47° Northeast 404 465 11,900  Level FlightAware
07:03PM 41.0430 -73.6170 47° Northeast 402 463 11,900 60 Level FlightAware
07:04PM 41.1070 -73.5260 47° Northeast 404 465 12,000 1,500 Climbing FlightAware
07:05PM 41.1650 -73.4440 47° Northeast 390 449 14,400 1,560 Climbing FlightAware
07:06PM 41.2170 -73.3710 47° Northeast 390 449 14,400  Level FlightAware
07:07PM 41.2580 -73.3110 48° Northeast 390 449 14,400 1,860 Level FlightAware
07:12PM 41.6120 -72.6050 56° Northeast 26,100 2,100 Climbing FlightAware
07:13PM 41.7140 -72.3760 59° Northeast 533 613 27,300 1,320 Climbing FlightAware
07:13PM 41.7720 -72.2460 59° Northeast 541 623 28,100 1,560 Climbing FlightAware
07:14PM 41.8300 -72.1160 59° Northeast 541 623 29,400 1,740 Climbing FlightAware
07:15PM 41.8850 -71.9900 60° Northeast 541 623 30,600 1,500 Climbing FlightAware
07:15PM 41.9330 -71.8820 59° Northeast 538 619 31,600 1,380 Climbing FlightAware
07:16PM 41.9940 -71.7480 58° Northeast 536 617 32,600 900 Climbing FlightAware
07:17PM 42.0540 -71.6220 57° Northeast 537 618 33,000 240 Climbing FlightAware
07:18PM 42.1080 -71.5090 57° Northeast 535 616 33,000  Level FlightAware
07:18PM 42.1610 -71.3960 58° Northeast 528 608 33,000 60 Level FlightAware
07:19PM 42.1940 -71.2580 72° East 527 606 33,100 60 Climbing FlightAware
07:20PM 42.1990 -71.1250 87° East 531 611 33,100  Level FlightAware
07:20PM 42.2090 -70.9790 85° East 533 613 33,100 -120 Level FlightAware
07:21PM 42.2110 -70.8530 89° East 533 613 33,000 -120 Descending FlightAware
07:22PM 42.2120 -70.7250 89° East 532 612 33,000  Level FlightAware
07:24PM 42.2130 -70.3420 90° East 526 605 33,000  Level FlightAware
07:27PM 42.2150 -69.6400 90° East 519 597 33,000  Level FlightAware
07:28PM 42.2140 -69.3990 90° East 519 597 33,000  Level FlightAware
07:30PM 42.2130 -69.1730 90° East 518 596 33,000  Level FlightAware
07:32PM 42.2100 -68.7060 90° East 515 593 33,000  Level FlightAware
07:33PM 42.2070 -68.4670 91° East 513 590 33,000  Level FlightAware
07:34PM 42.2040 -68.2440 91° East 513 590 33,000  Level FlightAware
07:35PM 42.2020 -68.1140 91° East 33,000  Level FlightAware
07:36PM 42.2010 -67.9610 90° East 513 590 33,000  Level FlightAware
07:37PM 42.1980 -67.8440 92° East 513 590 33,000  Level FlightAware
07:37PM 42.1950 -67.6900 91° East 513 590 33,000  Level FlightAware
07:38PM 42.1950 -67.5860 90° East 513 590 33,000  Level FlightAware
07:39PM 42.1950 -67.4500 90° East 513 590 33,000  Level FlightAware
07:39PM 42.1950 -67.3410 90° East 513 590 33,000  Level FlightAware
07:40PM 42.1950 -67.2320 90° East 513 590 33,000  Level FlightAware
07:41PM 42.1950 -67.1230 90° East 513 590 33,000  Level FlightAware
07:41PM 42.1950 -67.0140 90° East 513 590 33,000  Level FlightAware
07:42PM 42.1950 -66.8780 90° East 513 590 33,000  Level FlightAware
07:43PM 42.1950 -66.7690 90° East 513 590 33,000  Level FlightAware
07:44PM 42.1950 -66.6600 90° East 513 590 33,000  Level FlightAware
07:44PM 42.1950 -66.5510 90° East 513 590 33,000  Level FlightAware
07:45PM 42.1950 -66.4420 90° East 513 590 33,000  Level FlightAware
07:45PM 42.1950 -66.3610 90° East 513 590 33,000  Level FlightAware
07:46PM 42.1950 -66.2520 90° East 513 590 33,000  Level FlightAware
07:47PM 42.1950 -66.1430 90° East 513 590 33,000 60 Level FlightAware
07:48PM 42.5333 -65.8000 90° East 510 587 33,100  Climbing Moncton Center
07:49PM 42.6167 -65.6167 58° Northeast 510 587 33,000  Descending Moncton Center
07:50PM 42.6667 -65.4333 70° East 520 598 33,100  Climbing Moncton Center
07:51PM 42.7167 -65.2667 68° East 510 587 33,000  Descending Moncton Center
07:52PM 42.7667 -65.0833 70° East 510 587 33,100  Climbing Moncton Center
07:53PM 42.8167 -64.9000 70° East 510 587 33,100  Level Moncton Center
07:54PM 42.8667 -64.7167 70° East 510 587 33,100  Level Moncton Center
07:55PM 42.9167 -64.5333 70° East 510 587 33,100  Level Moncton Center
07:56PM 42.9667 -64.3500 70° East 500 575 33,100  Level Moncton Center
07:57PM 43.0167 -64.1833 68° East 510 587 33,100 -60 Level Moncton Center
07:58PM 43.0667 -64.0167 68° East 510 587 33,000  Descending Moncton Center
07:59PM 43.1167 -63.8333 69° East 510 587 33,100  Climbing Moncton Center
08:00PM 43.1667 -63.6333 71° East 500 575 33,100  Level Moncton Center
08:01PM 43.2167 -63.4500 69° East 510 587 33,100  Level Moncton Center
08:02PM 43.2667 -63.2667 69° East 510 587 33,100 -60 Level Moncton Center
08:03PM 43.3167 -63.0833 69° East 520 598 33,000 -60 Descending Moncton Center
08:04PM 43.3667 -62.9000 69° East 520 598 33,000  Level Moncton Center
08:05PM 43.4167 -62.7167 69° East 520 598 33,000  Level Moncton Center
08:06PM 43.4667 -62.5167 71° East 520 598 33,100  Climbing Moncton Center
08:07PM 43.5167 -62.3500 67° East 520 598 33,100  Level Moncton Center
08:08PM 43.5667 -62.1667 69° East 530 610 33,100 -60 Level Moncton Center
08:09PM 43.6000 -61.9500 78° East 520 598 33,000  Descending Moncton Center
08:10PM 43.6500 -61.7667 69° East 520 598 33,100  Climbing Moncton Center
08:11PM 43.7167 -61.5833 63° Northeast 520 598 33,100  Level Moncton Center
08:12PM 43.7667 -61.3833 71° East 530 610 33,100  Level Moncton Center
08:13PM 43.8000 -61.1833 77° East 520 598 33,100  Level Moncton Center
08:14PM 43.8500 -60.9833 71° East 530 610 33,100  Level Moncton Center
08:15PM 43.9000 -60.8167 67° East 520 598 33,100  Level Moncton Center
08:16PM 43.9500 -60.6167 71° East 520 598 33,100  Level Moncton Center
08:17PM 44.0000 -60.4167 71° East 530 610 33,100  Level Moncton Center
08:18PM 44.0333 -60.2333 76° East 530 610 33,100  Level Moncton Center
08:19PM 44.0833 -60.0500 69° East 530 610 33,100  Level Moncton Center
08:20PM 44.1333 -59.8333 72° East 520 598 33,100  Level Moncton Center
08:21PM 44.1667 -59.6667 74° East 530 610 33,100  Level Moncton Center
08:22PM 44.2333 -59.4500 67° East 530 610 33,100  Level Moncton Center
08:23PM 44.2667 -59.2667 76° East 520 598 33,100  Level Moncton Center
08:24PM 44.3167 -59.0667 71° East 530 610 33,100 -60 Level Moncton Center
08:25PM 44.3500 -58.8833 76° East 530 610 33,000  Descending Moncton Center
08:26PM 44.3833 -58.6833 77° East 530 610 33,100  Climbing Moncton Center
08:27PM 44.4333 -58.4667 72° East 530 610 33,000  Descending Moncton Center
08:28PM 44.4833 -58.2667 71° East 530 610 33,100 360 Climbing Gander Center
08:29PM 44.5167 -58.0833 76° East 530 610 33,800 480 Climbing Moncton Center
08:30PM 44.5667 -57.9000 69° East 540 621 34,100 120 Climbing Moncton Center
08:31PM 44.6167 -57.6667 73° East 530 610 34,100  Level Moncton Center
08:32PM 44.6500 -57.4833 76° East 530 610 34,100  Level Moncton Center
08:33PM 44.7000 -57.2667 72° East 540 621 34,100  Level Gander Center
08:34PM 44.7333 -57.0667 77° East 530 610 34,100  Level Moncton Center
08:35PM 44.7833 -56.8667 71° East 530 610 34,100  Level Moncton Center
08:36PM 44.8167 -56.6833 76° East 530 610 34,100  Level Moncton Center
08:37PM 44.8500 -56.4667 78° East 540 621 34,100  Level Gander Center
08:38PM 44.9000 -56.2667 70° East 540 621 34,100  Level Moncton Center
08:39PM 44.9500 -56.0667 70° East 540 621 34,100  Level Moncton Center
08:40PM 44.9833 -55.8500 78° East 540 621 34,100  Level Moncton Center
08:42PM 45.0500 -55.4667 76° East 550 633 34,100  Level Gander Center
08:43PM 45.1000 -55.2500 72° East 550 633 34,100  Level Gander Center
08:44PM 45.1333 -55.0667 75° East 550 633 34,100  Level Gander Center
08:45PM 45.1667 -54.8500 78° East 550 633 34,100  Level Gander Center
08:46PM 45.2000 -54.6500 77° East 550 633 34,100  Level Gander Center
08:47PM 45.2500 -54.4333 72° East 550 633 34,100  Level Gander Center
08:48PM 45.3000 -54.2167 72° East 550 633 34,100  Level Gander Center
08:49PM 45.3333 -54.0167 77° East 550 633 34,100  Level Gander Center
08:50PM 45.3667 -53.8000 78° East 560 644 34,100 300 Level Gander Center
08:51PM 45.4000 -53.6000 77° East 550 633 34,800 480 Climbing Gander Center
08:52PM 45.4333 -53.3667 78° East 560 644 35,100 120 Climbing Gander Center
08:53PM 45.4667 -53.1667 77° East 570 656 35,100  Level Gander Center
08:54PM 45.5000 -52.9500 78° East 570 656 35,100  Level Gander Center
08:55PM 45.5500 -52.7167 73° East 570 656 35,100  Level Gander Center
08:56PM 45.5833 -52.5000 78° East 570 656 35,100  Level Gander Center
08:57PM 45.6167 -52.2833 78° East 580 667 35,100  Level Gander Center
08:58PM 45.6667 -52.0500 73° East 570 656 35,100  Level Gander Center
08:59PM 45.7000 -51.8333 78° East 570 656 35,100  Level Gander Center
09:00PM 45.7333 -51.6167 77° East 580 667 35,100  Level Gander Center
09:01PM 45.7667 -51.3833 78° East 580 667 35,100  Level Gander Center
09:02PM 45.8167 -51.1667 72° East 580 667 35,100  Level Gander Center
09:03PM 45.8333 -50.9500 84° East 580 667 35,100  Level Gander Center
09:04PM 45.8667 -50.7000 79° East 580 667 35,100  Level Gander Center
09:05PM 45.9167 -50.4667 73° East 590 679 35,100  Level Gander Center
09:06PM 45.9333 -50.2500 84° East 580 667 35,100  Level Gander Center
09:07PM 45.9667 -50.0167 78° East 590 679 35,100  Level Gander Center
09:08PM 46.0000 -49.7667 79° East 580 667 35,100  Level Gander Center
09:09PM 46.0333 -49.5667 76° East 590 679 35,100  Level Gander Center
09:10PM 46.0667 -49.3500 77° East 580 667 35,100  Level Gander Center
09:11PM 46.1000 -49.1000 79° East 590 679 35,100  Level Gander Center
09:12PM 46.1333 -48.8667 78° East 590 679 35,100  Level Gander Center
09:13PM 46.1500 -48.6333 84° East 590 679 35,100  Level Gander Center
09:14PM 46.1667 -48.4000 84° East 590 679 35,100  Level Gander Center
09:15PM 46.2167 -48.1667 73° East 600 690 35,100  Level Gander Center
09:16PM 46.2333 -47.9500 84° East 590 679 35,100  Level Gander Center
09:17PM 46.2667 -47.7167 78° East 600 690 35,100  Level Gander Center
09:18PM 46.3000 -47.4667 79° East 600 690 35,100  Level Gander Center
09:19PM 46.3333 -47.2333 78° East 600 690 35,100  Level Gander Center
09:21PM 46.3667 -46.7667 84° East 610 702 35,100  Level Gander Center
09:23PM 46.4223 -46.3719 78° East  Level FlightAware Approximate
09:30PM 46.6076 -44.9586 82° East  Level FlightAware Approximate
09:31PM 46.6281 -44.7551 82° East  Level FlightAware Approximate
09:32PM 46.6482 -44.5514 82° East  Level FlightAware Approximate
09:33PM 46.6679 -44.3476 82° East  Level FlightAware Approximate
09:34PM 46.6873 -44.1436 82° East  Level FlightAware Approximate
09:35PM 46.7063 -43.9395 82° East  Level FlightAware Approximate
09:36PM 46.7249 -43.7352 82° East  Level FlightAware Approximate
09:37PM 46.7432 -43.5308 82° East  Level FlightAware Approximate
09:38PM 46.7611 -43.3262 83° East  Level FlightAware Approximate
09:39PM 46.7787 -43.1216 83° East  Level FlightAware Approximate
09:40PM 46.7958 -42.9168 83° East  Level FlightAware Approximate
09:41PM 46.8127 -42.7118 83° East  Level FlightAware Approximate
09:42PM 46.8291 -42.5067 83° East  Level FlightAware Approximate
09:43PM 46.8452 -42.3016 83° East  Level FlightAware Approximate
09:44PM 46.8609 -42.0962 84° East  Level FlightAware Approximate
09:45PM 46.8763 -41.8908 84° East  Level FlightAware Approximate
09:46PM 46.8913 -41.6853 84° East  Level FlightAware Approximate
09:47PM 46.9059 -41.4796 84° East  Level FlightAware Approximate
09:48PM 46.9201 -41.2738 84° East  Level FlightAware Approximate
09:49PM 46.9340 -41.0680 84° East  Level FlightAware Approximate
09:50PM 46.9475 -40.8620 84° East  Level FlightAware Approximate
09:51PM 46.9607 -40.6559 85° East  Level FlightAware Approximate
09:52PM 46.9734 -40.4497 85° East  Level FlightAware Approximate
09:53PM 46.9859 -40.2434 85° East  Level FlightAware Approximate
09:54PM 46.9979 -40.0370 85° East  Level FlightAware Approximate
09:55PM 47.0242 -39.8337 78° East  Level FlightAware Approximate
09:56PM 47.0533 -39.6308 78° East  Level FlightAware Approximate
09:57PM 47.0820 -39.4277 78° East  Level FlightAware Approximate
09:58PM 47.1104 -39.2244 78° East  Level FlightAware Approximate
09:59PM 47.1385 -39.0209 78° East  Level FlightAware Approximate
10:00PM 47.1662 -38.8172 79° East  Level FlightAware Approximate
10:01PM 47.1935 -38.6133 79° East  Level FlightAware Approximate
10:02PM 47.2204 -38.4091 79° East  Level FlightAware Approximate
10:03PM 47.2470 -38.2047 79° East  Level FlightAware Approximate
10:04PM 47.2733 -38.0002 79° East  Level FlightAware Approximate
10:05PM 47.2991 -37.7954 79° East  Level FlightAware Approximate
10:06PM 47.3246 -37.5905 80° East  Level FlightAware Approximate
10:07PM 47.3497 -37.3853 80° East  Level FlightAware Approximate
10:08PM 47.3745 -37.1800 80° East  Level FlightAware Approximate
10:09PM 47.3989 -36.9744 80° East  Level FlightAware Approximate
10:10PM 47.4229 -36.7687 80° East  Level FlightAware Approximate
10:11PM 47.4466 -36.5628 80° East  Level FlightAware Approximate
10:12PM 47.4699 -36.3567 80° East  Level FlightAware Approximate
10:13PM 47.4928 -36.1504 81° East  Level FlightAware Approximate
10:14PM 47.5154 -35.9439 81° East  Level FlightAware Approximate
10:15PM 47.5376 -35.7373 81° East  Level FlightAware Approximate
10:16PM 47.5594 -35.5305 81° East  Level FlightAware Approximate
10:17PM 47.5808 -35.3235 81° East  Level FlightAware Approximate
10:18PM 47.6019 -35.1163 81° East  Level FlightAware Approximate
10:19PM 47.6226 -34.9090 82° East  Level FlightAware Approximate
10:20PM 47.6429 -34.7015 82° East  Level FlightAware Approximate
10:21PM 47.6628 -34.4939 82° East  Level FlightAware Approximate
10:22PM 47.6824 -34.2861 82° East  Level FlightAware Approximate
10:23PM 47.7016 -34.0782 82° East  Level FlightAware Approximate
10:24PM 47.7204 -33.8700 82° East  Level FlightAware Approximate
10:25PM 47.7389 -33.6618 82° East  Level FlightAware Approximate
10:26PM 47.7569 -33.4534 83° East  Level FlightAware Approximate
10:27PM 47.7746 -33.2449 83° East  Level FlightAware Approximate
10:28PM 47.7919 -33.0362 83° East  Level FlightAware Approximate
10:29PM 47.8089 -32.8274 83° East  Level FlightAware Approximate
10:30PM 47.8254 -32.6184 83° East  Level FlightAware Approximate
10:31PM 47.8416 -32.4093 83° East  Level FlightAware Approximate
10:32PM 47.8574 -32.2001 84° East  Level FlightAware Approximate
10:33PM 47.8728 -31.9908 84° East  Level FlightAware Approximate
10:34PM 47.8878 -31.7813 84° East  Level FlightAware Approximate
10:35PM 47.9025 -31.5717 84° East  Level FlightAware Approximate
10:36PM 47.9168 -31.3620 84° East  Level FlightAware Approximate
10:37PM 47.9306 -31.1522 84° East  Level FlightAware Approximate
10:38PM 47.9442 -30.9423 84° East  Level FlightAware Approximate
10:39PM 47.9573 -30.7323 85° East  Level FlightAware Approximate
10:40PM 47.9700 -30.5221 85° East  Level FlightAware Approximate
10:41PM 47.9824 -30.3119 85° East  Level FlightAware Approximate
10:42PM 47.9944 -30.1015 85° East  Level FlightAware Approximate
10:43PM 48.0152 -29.8931 78° East  Level FlightAware Approximate
10:44PM 48.0444 -29.6864 78° East  Level FlightAware Approximate
10:45PM 48.0731 -29.4794 78° East  Level FlightAware Approximate
10:46PM 48.1015 -29.2722 78° East  Level FlightAware Approximate
10:47PM 48.1295 -29.0648 78° East  Level FlightAware Approximate
10:48PM 48.1572 -28.8572 79° East  Level FlightAware Approximate
10:49PM 48.1845 -28.6493 79° East  Level FlightAware Approximate
10:50PM 48.2114 -28.4412 79° East  Level FlightAware Approximate
10:51PM 48.2379 -28.2329 79° East  Level FlightAware Approximate
10:52PM 48.2640 -28.0244 79° East  Level FlightAware Approximate
10:53PM 48.2898 -27.8157 79° East  Level FlightAware Approximate
10:54PM 48.3152 -27.6067 80° East  Level FlightAware Approximate
10:55PM 48.3402 -27.3976 80° East  Level FlightAware Approximate
10:56PM 48.3648 -27.1882 80° East  Level FlightAware Approximate
10:57PM 48.3891 -26.9787 80° East  Level FlightAware Approximate
10:58PM 48.4129 -26.7689 80° East  Level FlightAware Approximate
10:59PM 48.4364 -26.5590 80° East  Level FlightAware Approximate
11:00PM 48.4595 -26.3489 81° East  Level FlightAware Approximate
11:01PM 48.4829 -26.1387 80° East  Level FlightAware Approximate
11:02PM 48.5063 -25.9284 80° East  Level FlightAware Approximate
11:03PM 48.5292 -25.7180 81° East  Level FlightAware Approximate
11:04PM 48.5518 -25.5073 81° East  Level FlightAware Approximate
11:05PM 48.5739 -25.2965 81° East  Level FlightAware Approximate
11:06PM 48.5957 -25.0855 81° East  Level FlightAware Approximate
11:07PM 48.6171 -24.8743 81° East  Level FlightAware Approximate
11:08PM 48.6381 -24.6629 81° East  Level FlightAware Approximate
11:09PM 48.6587 -24.4513 82° East  Level FlightAware Approximate
11:10PM 48.6790 -24.2396 82° East  Level FlightAware Approximate
11:11PM 48.6988 -24.0277 82° East  Level FlightAware Approximate
11:12PM 48.7183 -23.8156 82° East  Level FlightAware Approximate
11:13PM 48.7374 -23.6034 82° East  Level FlightAware Approximate
11:14PM 48.7561 -23.3910 82° East  Level FlightAware Approximate
11:15PM 48.7743 -23.1785 82° East  Level FlightAware Approximate
11:16PM 48.7922 -22.9658 83° East  Level FlightAware Approximate
11:17PM 48.8097 -22.7529 83° East  Level FlightAware Approximate
11:18PM 48.8269 -22.5399 83° East  Level FlightAware Approximate
11:19PM 48.8436 -22.3268 83° East  Level FlightAware Approximate
11:20PM 48.8599 -22.1135 83° East  Level FlightAware Approximate
11:21PM 48.8759 -21.9001 83° East  Level FlightAware Approximate
11:22PM 48.8914 -21.6866 84° East  Level FlightAware Approximate
11:23PM 48.9066 -21.4729 84° East  Level FlightAware Approximate
11:24PM 48.9213 -21.2591 84° East  Level FlightAware Approximate
11:25PM 48.9357 -21.0451 84° East  Level FlightAware Approximate
11:26PM 48.9496 -20.8311 84° East  Level FlightAware Approximate
11:27PM 48.9632 -20.6169 84° East  Level FlightAware Approximate
11:28PM 48.9763 -20.4026 85° East  Level FlightAware Approximate
11:29PM 48.9891 -20.1882 85° East  Level FlightAware Approximate
11:30PM 49.0014 -19.9737 85° East  Level FlightAware Approximate
11:31PM 49.0122 -19.7590 86° East  Level FlightAware Approximate
11:32PM 49.0227 -19.5441 86° East  Level FlightAware Approximate
11:33PM 49.0327 -19.3292 86° East  Level FlightAware Approximate
11:34PM 49.0424 -19.1142 86° East  Level FlightAware Approximate
11:35PM 49.0517 -18.8991 86° East  Level FlightAware Approximate
11:36PM 49.0605 -18.6839 86° East  Level FlightAware Approximate
11:37PM 49.0690 -18.4687 86° East  Level FlightAware Approximate
11:38PM 49.0771 -18.2533 87° East  Level FlightAware Approximate
11:39PM 49.0847 -18.0380 87° East  Level FlightAware Approximate
11:40PM 49.0920 -17.8225 87° East  Level FlightAware Approximate
11:41PM 49.0988 -17.6070 87° East  Level FlightAware Approximate
11:42PM 49.1053 -17.3914 87° East  Level FlightAware Approximate
11:43PM 49.1114 -17.1758 87° East  Level FlightAware Approximate
11:44PM 49.1170 -16.9601 88° East  Level FlightAware Approximate
11:45PM 49.1223 -16.7444 88° East  Level FlightAware Approximate
11:46PM 49.1271 -16.5286 88° East  Level FlightAware Approximate
11:47PM 49.1316 -16.3128 88° East  Level FlightAware Approximate
11:48PM 49.1356 -16.0970 88° East  Level FlightAware Approximate
11:49PM 49.1393 -15.8811 88° East  Level FlightAware Approximate
11:50PM 49.1425 -15.6652 89° East  Level FlightAware Approximate
11:51PM 49.1454 -15.4492 89° East  Level FlightAware Approximate
11:52PM 49.1478 -15.2333 89° East  Level FlightAware Approximate
11:53PM 49.1498 -15.0173 89° East  Level FlightAware Approximate
11:54PM 49.1516 -14.8013 89° East  Level FlightAware Approximate
11:55PM 49.1529 -14.5853 89° East  Level FlightAware Approximate
11:56PM 49.1539 -14.3693 90° East  Level FlightAware Approximate
11:57PM 49.1544 -14.1533 90° East  Level FlightAware Approximate
11:58PM 49.1545 -13.9373 90° East  Level FlightAware Approximate
11:59PM 49.1543 -13.7212 90° East  Level FlightAware Approximate
12:00AM 49.1536 -13.5052 90° East  Level FlightAware Approximate
12:01AM 49.1525 -13.2892 90° East  Level FlightAware Approximate
12:02AM 49.1510 -13.0732 91° East  Level FlightAware Approximate
12:03AM 49.1491 -12.8572 91° East  Level FlightAware Approximate
12:03AM 48.7760 -9.2100 91° East 524 603 35,100  Level FlightAware
12:04AM 49.1468 -12.6413 91° East  Level FlightAware Approximate
12:04AM 48.7640 -9.0540 97° East 523 602 35,100  Level FlightAware
12:05AM 48.7530 -8.8910 96° East 522 601 35,100 -1,620 Level FlightAware
12:05AM 48.7350 -8.7887 96° East 1 1 33,500 -2,940 Descending FlightAware UK
12:05AM 48.7302 -8.7235 96° East 1 1 33,500 4,800 Level FlightAware UK
12:05AM 48.7450 -8.7750 96° East 522 601 35,100  Climbing FlightAware
12:05AM 48.7255 -8.6581 96° East 1 1 33,500 -2,880 Descending FlightAware UK
12:06AM 48.7209 -8.5927 96° East 470 541 33,500 3,300 Level FlightAware UK
12:06AM 48.7320 -8.5990 96° East 522 601 35,100  Climbing FlightAware
12:06AM 48.7162 -8.5275 96° East 464 534 33,500 -5,100 Descending FlightAware UK
12:06AM 48.7130 -8.4841 96° East 464 534 33,500  Level FlightAware UK
12:07AM 48.7082 -8.4190 96° East 466 536 33,500 3,660 Level FlightAware UK
12:07AM 48.7200 -8.4330 96° East 522 601 35,100  Climbing FlightAware
12:07AM 48.7016 -8.3322 96° East 468 539 33,500 -2,880 Descending FlightAware UK
12:07AM 48.6967 -8.2670 97° East 468 539 33,500 3,960 Level FlightAware UK
12:07AM 48.7090 -8.2870 97° East 523 602 35,100  Climbing FlightAware
12:08AM 48.6901 -8.1794 97° East 466 536 33,500 -2,700 Descending FlightAware UK
12:08AM 48.6850 -8.1143 97° East 466 536 33,500 3,540 Level FlightAware UK
12:08AM 48.6940 -8.1360 97° East 529 609 35,100  Climbing FlightAware
12:08AM 48.6654 -8.0303 97° East 470 541 33,500 -2,940 Descending FlightAware UK
12:09AM 48.6513 -7.9661 108° East 472 543 33,500  Level FlightAware UK
12:09AM 48.6376 -7.9030 108° East 472 543 33,500  Level FlightAware UK
12:09AM 48.6239 -7.8398 108° East 470 541 33,500  Level FlightAware UK
12:10AM 48.6106 -7.7764 108° East 470 541 33,500  Level FlightAware UK
12:10AM 48.5973 -7.7134 108° East 468 539 33,500  Level FlightAware UK
12:10AM 48.5834 -7.6506 108° East 468 539 33,500  Level FlightAware UK
12:10AM 48.5687 -7.5875 109° East 468 539 33,500  Level FlightAware UK
12:11AM 48.5539 -7.5260 110° East 468 539 33,500  Level FlightAware UK
12:11AM 48.5387 -7.4638 110° East 470 541 33,500  Level FlightAware UK
12:11AM 48.5236 -7.4016 110° East 470 541 33,500  Level FlightAware UK
12:12AM 48.5085 -7.3394 110° East 470 541 33,500  Level FlightAware UK
12:12AM 48.4933 -7.2765 110° East 470 541 33,500  Level FlightAware UK
12:12AM 48.4783 -7.2141 110° East 472 543 33,500  Level FlightAware UK
12:13AM 48.4633 -7.1519 110° East 474 545 33,500  Level FlightAware UK
12:13AM 48.4483 -7.0895 110° East 474 545 33,500  Level FlightAware UK
12:13AM 48.4333 -7.0273 110° East 474 545 33,500  Level FlightAware UK
12:13AM 48.4181 -6.9652 110° East 474 545 33,500  Level FlightAware UK
12:14AM 48.4028 -6.9032 110° East 474 545 33,500  Level FlightAware UK
12:14AM 48.3873 -6.8407 110° East 474 545 33,500  Level FlightAware UK
12:14AM 48.3720 -6.7789 110° East 472 543 33,500  Level FlightAware UK
12:15AM 48.3566 -6.7172 111° Southeast 472 543 33,500  Level FlightAware UK
12:15AM 48.3412 -6.6556 111° Southeast 474 545 33,500  Level FlightAware UK
12:15AM 48.3260 -6.5941 110° East 476 548 33,500  Level FlightAware UK
12:16AM 48.3106 -6.5327 111° Southeast 472 543 33,500  Level FlightAware UK
12:16AM 48.2952 -6.4719 111° Southeast 472 543 33,500  Level FlightAware UK
12:16AM 48.2797 -6.4111 111° Southeast 474 545 33,500  Level FlightAware UK
12:16AM 48.2643 -6.3503 111° Southeast 474 545 33,500  Level FlightAware UK
12:17AM 48.2487 -6.2888 111° Southeast 472 543 33,500  Level FlightAware UK
12:17AM 48.2332 -6.2279 111° Southeast 470 541 33,500  Level FlightAware UK
12:17AM 48.2178 -6.1671 111° Southeast 472 543 33,500  Level FlightAware UK
12:18AM 48.2024 -6.1065 111° Southeast 472 543 33,500  Level FlightAware UK
12:18AM 48.1870 -6.0459 111° Southeast 472 543 33,500 300 Level FlightAware UK
12:22AM 47.9750 -5.2140 111° Southeast 520 598 35,100 240 Climbing FlightAware
12:24AM 47.8940 -4.9150 112° Southeast 520 598 35,100  Level FlightAware
12:24AM 47.8570 -4.7770 112° Southeast 519 597 35,100  Level FlightAware
12:25AM 47.8230 -4.6500 112° Southeast 519 597 35,100  Level FlightAware
12:26AM 47.7820 -4.4980 112° Southeast 519 597 35,100  Level FlightAware
12:26AM 47.7490 -4.3780 112° Southeast 520 598 35,100  Level FlightAware
12:27AM 47.7110 -4.2410 112° Southeast 519 597 35,100  Level FlightAware
12:28AM 47.6710 -4.0940 112° Southeast 519 597 35,100  Level FlightAware
12:29AM 47.6340 -3.9640 113° Southeast 519 597 35,100  Level FlightAware
12:31AM 47.5937 -3.5597 98° East  Level Estimated
12:32AM 47.5724 -3.3526 99° East  Level Estimated
12:33AM 47.5508 -3.1457 99° East  Level Estimated
12:34AM 47.5288 -2.9390 99° East  Level Estimated
12:35AM 47.5065 -2.7324 99° East  Level Estimated
12:36AM 47.4837 -2.5260 99° East  Level Estimated
12:37AM 47.4607 -2.3198 99° East  Level Estimated
12:38AM 47.4372 -2.1138 99° East  Level Estimated
12:39AM 47.4134 -1.9080 100° East  Level Estimated
12:40AM 47.3892 -1.7023 100° East  Level Estimated
12:40AM 46.9700 -1.6920 100° East 517 595 35,100  Level FlightAware
12:41AM 46.9260 -1.5510 115° Southeast 517 595 35,100  Level FlightAware
12:42AM 46.8870 -1.4240 114° Southeast 516 594 35,100  Level FlightAware
12:42AM 46.8420 -1.2780 114° Southeast 515 593 35,100  Level FlightAware
12:43AM 46.8020 -1.1510 115° Southeast 515 593 35,100  Level FlightAware
12:44AM 46.7600 -1.0160 114° Southeast 514 592 35,100  Level FlightAware
12:44AM 46.7190 -0.8870 115° Southeast 513 590 35,100  Level FlightAware
12:45AM 46.6950 -0.7830 109° East 515 593 35,100  Level FlightAware
12:46AM 46.6700 -0.6230 103° East 35,100  Level FlightAware
12:46AM 46.6510 -0.5070 103° East 516 594 35,100  Level FlightAware
12:47AM 46.6220 -0.3130 102° East 515 593 35,100  Level FlightAware
12:48AM 46.5890 -0.1120 103° East 514 592 35,100  Level FlightAware
12:50AM 46.5430 0.1700 103° East 513 590 35,100  Level FlightAware
12:51AM 46.5170 0.3300 103° East 512 589 35,100  Level FlightAware
12:51AM 46.4950 0.4670 103° East 511 588 35,100  Level FlightAware
12:52AM 46.4690 0.6200 104° East 512 589 35,100  Level FlightAware
12:53AM 46.4490 0.7400 104° East 512 589 35,100  Level FlightAware
12:53AM 46.4260 0.8780 104° East 512 589 35,100  Level FlightAware
12:54AM 46.3990 1.0390 104° East 509 586 35,100  Level FlightAware
12:55AM 46.3680 1.2190 104° East 509 586 35,100  Level FlightAware
12:56AM 46.3440 1.3600 104° East 507 583 35,100  Level FlightAware
12:57AM 46.3140 1.5330 104° East 506 582 35,100  Level FlightAware
12:57AM 46.2890 1.6770 104° East 505 581 35,100  Level FlightAware
12:58AM 46.2620 1.8280 104° East 504 580 35,100  Level FlightAware
12:59AM 46.2390 1.9560 105° East 503 579 35,100  Level FlightAware
12:59AM 46.2150 2.0900 104° East 505 581 35,100  Level FlightAware
01:00AM 46.1900 2.2290 105° East 505 581 35,100  Level FlightAware
01:01AM 46.1670 2.3560 105° East 504 580 35,100  Level FlightAware
01:01AM 46.1420 2.4910 105° East 505 581 35,100  Level FlightAware
01:02AM 46.1150 2.6400 105° East 504 580 35,100  Level FlightAware
01:03AM 46.0910 2.7690 105° East 504 580 35,100  Level FlightAware
01:04AM 46.0640 2.9120 105° East 505 581 35,100  Level FlightAware
01:04AM 46.0390 3.0400 106° East 507 583 35,100  Level FlightAware
01:05AM 46.0140 3.1710 105° East 507 583 35,100  Level FlightAware
01:06AM 45.9860 3.3200 105° East 508 585 35,100  Level FlightAware
01:06AM 45.9610 3.4490 106° East 508 585 35,100  Level FlightAware
01:07AM 45.9370 3.5810 105° East 509 586 35,100  Level FlightAware
01:08AM 45.9130 3.7250 103° East 509 586 35,100  Level FlightAware
01:08AM 45.8900 3.8550 104° East 509 586 35,100  Level FlightAware
01:09AM 45.8640 4.0050 104° East 510 587 35,100  Level FlightAware
01:10AM 45.8400 4.1370 105° East 510 587 35,100  Level FlightAware
01:11AM 45.8140 4.2830 104° East 510 587 35,100  Level FlightAware
01:11AM 45.7910 4.4100 105° East 508 585 35,100  Level FlightAware
01:12AM 45.7660 4.5280 107° East 502 578 35,100  Level FlightAware
01:13AM 45.7340 4.6350 113° Southeast 497 572 35,100  Level FlightAware
01:13AM 45.6900 4.7720 115° Southeast 490 564 35,100  Level FlightAware
01:14AM 45.6430 4.9180 115° Southeast 487 560 35,100  Level FlightAware
01:15AM 45.6050 5.0370 114° Southeast 487 560 35,100  Level FlightAware
01:15AM 45.5670 5.1540 115° Southeast 485 558 35,100 -540 Level FlightAware
01:16AM 45.5260 5.2810 115° Southeast 493 567 34,400 -1,320 Descending FlightAware
01:17AM 45.4860 5.4050 115° Southeast 477 549 33,300 -1,680 Descending FlightAware
01:18AM 45.4460 5.5280 115° Southeast 463 533 32,100 -1,680 Descending FlightAware
01:18AM 45.4100 5.6380 115° Southeast 455 524 31,000 -1,440 Descending FlightAware
01:19AM 45.3860 5.7090 116° Southeast 467 537 30,300 -1,620 Descending FlightAware
01:20AM 45.3080 5.9440 115° Southeast 455 524 28,100 -1,620 Descending FlightAware
01:21AM 45.2680 6.0620 116° Southeast 431 496 27,100 -840 Descending FlightAware
01:21AM 45.2390 6.1500 115° Southeast 429 494 27,000 -120 Descending FlightAware
01:22AM 45.2000 6.2640 116° Southeast 442 509 27,000  Level FlightAware
01:23AM 45.1590 6.3860 115° Southeast 444 511 27,000  Level FlightAware
01:24AM 45.1190 6.5040 116° Southeast 443 510 27,000 60 Level FlightAware
01:24AM 45.0860 6.6180 112° Southeast 462 532 27,100  Climbing FlightAware
01:25AM 45.0680 6.7380 102° East 479 551 27,000 -720 Descending FlightAware
01:26AM 45.0540 6.8770 98° East 478 550 26,100 -1,200 Descending FlightAware
01:26AM 45.0480 6.9990 94° East 469 540 25,300 -1,440 Descending FlightAware
01:29AM 45.1744 7.3646 64° Northeast  Level Estimated
01:29AM 45.0260 7.3710 64° Northeast 23,100  Level FlightAware
01:31AM 44.9500 7.7505 115° Southeast  Level FlightAware Approximate
01:32AM 44.9656 7.9070 39° Northeast  Level FlightAware Approximate
01:33AM 45.0695 8.0420 45° Northeast  Level FlightAware Approximate
01:33AM 45.0950 8.0700 45° Northeast 352 405 15,700  Level FlightAware
01:34AM 45.1260 8.1550 63° Northeast 349 402 13,900 -2,580 Descending FlightAware
01:35AM 45.1590 8.2460 63° Northeast 329 379 12,100 -2,520 Descending FlightAware
01:35AM 45.1870 8.3220 62° Northeast 322 371 10,400 -2,160 Descending FlightAware
01:36AM 45.2080 8.3800 63° Northeast 307 353 9,600 -1,200 Descending FlightAware
01:36AM 45.2230 8.4240 64° Northeast 289 333 9,300 -600 Descending FlightAware
01:36AM 45.2320 8.4480 62° Northeast 280 322 9,200 -840 Descending FlightAware
01:37AM 45.2490 8.4970 64° Northeast 271 312 8,700 -1,080 Descending FlightAware
01:37AM 45.2580 8.5210 62° Northeast 269 310 8,400 -780 Descending FlightAware
01:38AM 45.2700 8.5550 63° Northeast 261 300 8,200 -360 Descending FlightAware
01:38AM 45.2830 8.5910 63° Northeast 244 281 8,100 -600 Descending FlightAware
01:39AM 45.3080 8.6440 56° Northeast 231 266 7,600 -840 Descending FlightAware
01:39AM 45.3380 8.6760 37° Northeast 227 261 7,100 -900 Descending FlightAware
01:40AM 45.3580 8.6960 35° Northeast 225 259 6,700 -1,020 Descending FlightAware
01:40AM 45.3850 8.7230 35° Northeast 225 259 6,200 -960 Descending FlightAware
01:40AM 45.3950 8.7330 35° Northeast 224 258 6,000 -900 Descending FlightAware
01:41AM 45.4170 8.7560 36° Northeast 217 250 5,600 -480 Descending FlightAware
01:41AM 45.4360 8.7750 35° Northeast 217 250 5,600 -900 Level FlightAware
01:44AM 45.6306 8.7281 350° North  Level Estimated
01:45AM 45.6306 8.7281 170° South  Level Estimated
01:45AM 45.5820 8.7400 170° South 150 173 2,100  Level FlightAware